Anthony, Pennsylvania
Current Conditions -  °F | °C
As of 8:54 PM on Sunday 25 Jan 2015 (Local Time) from KIPT Reporting Station
Overcast Overcast  
Wind Chill: -6°   Ceiling: 6500
Heat Index: -2°   Visibility: 10mi
Dew Point: -11°   Wind: 8mph
Humidity: 49%   Direction: 10°N
Pressure: 29.93"   Gusts: NA
Location:  41.1183°N, 76.7254°W
Report Text: KIPT 260154Z 01007KT 10SM FEW041 FEW049 OVC065 M02/M11 A2993 RMK AO2 SLP142 T10171111
Loading
Personal Weather Stations






























Interactive Weather Map New forecast layout! Learn more

10-Day Weather Forecast

Advertisements
Track Severe Weather on mobile